Terminal Aerodrome Forecast
Issued by NWS

Home | Current Version | Previous Version | Text Only | Print | Product List | Glossary On
Versions: 1 2 3 4 5 6 7 8 9 10 11 12 13 14 15 16 17 18 19 20 21 22
000
FTUS43 KLSX 301100
TAFUIN
TAF
KUIN 301137Z 3012/3112 VRB03KT 6SM -RA SCT007 OVC060
      TEMPO 3012/3014 3SM -RA BR BKN010
     FM301400 36007KT 5SM -RA BR OVC015
     FM301800 35012KT P6SM VCSH OVC012
     FM302100 36014G22KT P6SM OVC015
     FM310300 01012KT P6SM OVC015=

USA.gov is the U.S. government's official web portal to all federal, state and local government web resources and services.